createdAt,value
2018-05-08T00:00:55.298Z,97.80
2018-05-08T00:03:21.466Z,97.80
2018-05-08T00:05:47.765Z,97.80
2018-05-08T00:08:15.072Z,97.30
2018-05-08T00:10:41.250Z,97.40
2018-05-08T00:13:08.571Z,97.40
2018-05-08T00:15:34.800Z,97.60
2018-05-08T00:18:01.011Z,97.70
2018-05-08T00:20:27.237Z,98.00
2018-05-08T00:22:53.432Z,98.00
2018-05-08T00:25:19.926Z,98.10
2018-05-08T00:27:46.351Z,98.20
2018-05-08T00:30:12.892Z,98.30
2018-05-08T00:32:39.403Z,98.30
2018-05-08T00:35:05.609Z,98.20
2018-05-08T00:37:31.802Z,98.00
2018-05-08T00:39:57.982Z,98.00
2018-05-08T00:42:24.173Z,98.00
2018-05-08T00:44:50.464Z,98.00
2018-05-08T00:47:16.658Z,98.00
2018-05-08T00:49:42.822Z,98.00
2018-05-08T00:52:09.039Z,97.80
2018-05-08T00:57:41.467Z,97.90
2018-05-08T01:00:07.666Z,97.80
2018-05-08T01:02:33.858Z,97.80
2018-05-08T01:05:00.157Z,97.80
2018-05-08T01:07:26.311Z,97.80
2018-05-08T01:09:52.552Z,97.90
2018-05-08T01:12:18.798Z,98.00
2018-05-08T01:14:44.981Z,98.00
2018-05-08T01:17:11.154Z,98.10
2018-05-08T01:19:37.374Z,98.10
2018-05-08T01:22:03.580Z,98.10
2018-05-08T01:24:30.862Z,97.60
2018-05-08T01:26:57.074Z,98.00
2018-05-08T01:29:23.298Z,98.10
2018-05-08T01:31:49.474Z,98.00
2018-05-08T01:34:16.777Z,97.50
2018-05-08T01:36:42.965Z,98.00
2018-05-08T01:39:10.307Z,97.50
2018-05-08T01:41:36.551Z,98.00
2018-05-08T01:44:02.799Z,97.90
2018-05-08T01:46:29.158Z,98.00
2018-05-08T01:48:55.341Z,98.00
2018-05-08T01:51:21.532Z,98.10
2018-05-08T01:53:47.706Z,98.20
2018-05-08T01:56:13.927Z,98.30
2018-05-08T01:58:40.081Z,98.30
2018-05-08T02:01:07.782Z,97.70
2018-05-08T02:03:33.982Z,97.80
2018-05-08T02:06:01.278Z,97.80
2018-05-08T02:08:27.442Z,98.20
2018-05-08T02:10:53.624Z,98.30
2018-05-08T02:13:19.795Z,98.30
2018-05-08T02:15:45.970Z,98.30
2018-05-08T02:18:12.220Z,98.30
2018-05-08T02:20:38.394Z,98.30
2018-05-08T02:23:05.736Z,98.00
2018-05-08T02:25:31.951Z,98.40
2018-05-08T02:27:58.152Z,98.30
2018-05-08T02:30:24.382Z,98.40
2018-05-08T02:32:50.645Z,98.40
2018-05-08T02:37:44.925Z,98.00
2018-05-08T02:40:11.171Z,98.50
2018-05-08T02:42:37.366Z,98.50
2018-05-08T02:45:03.581Z,98.40
2018-05-08T02:47:30.890Z,98.00
2018-05-08T02:49:57.073Z,98.50
2018-05-08T02:52:23.292Z,98.40
2018-05-08T02:54:49.495Z,98.50
2018-05-08T02:57:15.672Z,98.40
2018-05-08T02:59:41.890Z,98.50
2018-05-08T03:02:08.117Z,98.40
2018-05-08T03:04:34.350Z,98.40
2018-05-08T03:09:28.479Z,98.20
2018-05-08T03:11:54.661Z,98.60
2018-05-08T03:14:20.842Z,98.60
2018-05-08T03:16:47.053Z,98.60
2018-05-08T03:19:13.249Z,98.40
2018-05-08T03:21:39.450Z,98.50
2018-05-08T03:24:05.690Z,98.60
2018-05-08T03:26:31.870Z,98.60
2018-05-08T03:28:58.119Z,98.60
2018-05-08T03:31:24.329Z,98.60
2018-05-08T03:33:50.538Z,98.30
2018-05-08T03:36:16.781Z,98.40
2018-05-08T03:38:43.042Z,98.40
2018-05-08T03:41:09.291Z,98.50
2018-05-08T03:43:36.572Z,98.10
2018-05-08T03:46:03.940Z,98.10
2018-05-08T03:50:58.052Z,98.50
2018-05-08T03:53:25.354Z,98.20
2018-05-08T03:55:51.526Z,98.60
2018-05-08T03:58:17.713Z,98.60
2018-05-08T04:00:56.350Z,98.60
2018-05-08T04:03:34.781Z,98.60
2018-05-08T04:08:59.038Z,98.60
2018-05-08T04:11:25.223Z,98.60
2018-05-08T04:13:51.411Z,98.80
2018-05-08T04:16:17.574Z,98.80
2018-05-08T04:18:43.781Z,98.70
2018-05-08T04:21:10.035Z,98.80
2018-05-08T04:23:36.206Z,98.90
2018-05-08T04:26:02.406Z,99.00
2018-05-08T04:28:28.595Z,99.00
2018-05-08T04:30:54.818Z,98.80
2018-05-08T04:33:21.034Z,98.80
2018-05-08T04:35:47.212Z,98.90
2018-05-08T04:38:13.501Z,98.80
2018-05-08T04:40:39.812Z,99.00
2018-05-08T04:43:06.014Z,99.20
2018-05-08T04:45:32.262Z,99.30
2018-05-08T04:47:58.463Z,99.30
2018-05-08T04:50:24.753Z,99.30
2018-05-08T04:52:50.934Z,99.10
2018-05-08T04:55:18.242Z,98.50
2018-05-08T04:57:44.442Z,98.90
2018-05-08T05:00:11.734Z,98.40
2018-05-08T05:02:38.038Z,98.90
2018-05-08T05:05:07.121Z,98.90
2018-05-08T05:07:33.374Z,98.90
2018-05-08T05:10:00.579Z,99.00
2018-05-08T05:12:28.802Z,98.40
2018-05-08T05:14:55.203Z,99.00
2018-05-08T05:17:21.486Z,99.00
2018-05-08T05:19:47.681Z,99.00
2018-05-08T05:22:13.867Z,99.00
2018-05-08T05:24:40.079Z,98.80
2018-05-08T05:27:06.354Z,98.80
2018-05-08T05:29:32.575Z,98.90
2018-05-08T05:31:58.836Z,98.70
2018-05-08T05:34:26.507Z,98.90
2018-05-08T05:36:53.848Z,98.10
2018-05-08T05:39:20.156Z,98.50
2018-05-08T05:41:47.334Z,98.60
2018-05-08T05:44:13.569Z,98.60
2018-05-08T05:46:39.845Z,98.70
2018-05-08T05:49:07.167Z,98.10
2018-05-08T05:51:33.359Z,98.60
2018-05-08T05:54:00.292Z,98.50
2018-05-08T05:56:26.504Z,98.50
2018-05-08T05:58:52.706Z,98.40
2018-05-08T06:01:18.970Z,98.30
2018-05-08T06:03:45.155Z,98.00
2018-05-08T06:06:11.394Z,97.90
2018-05-08T06:08:37.616Z,97.90
2018-05-08T06:11:04.282Z,97.80
2018-05-08T06:13:30.519Z,97.90
2018-05-08T06:15:56.748Z,97.90
2018-05-08T06:18:22.921Z,98.00
2018-05-08T06:20:49.100Z,97.80
2018-05-08T06:23:16.427Z,96.80
2018-05-08T06:25:42.602Z,97.30
2018-05-08T06:28:08.870Z,97.40
2018-05-08T06:30:35.061Z,97.40
2018-05-08T06:33:01.317Z,97.50
2018-05-08T06:35:27.506Z,97.30
2018-05-08T06:37:53.691Z,97.00
2018-05-08T06:40:19.904Z,96.90
2018-05-08T06:42:46.113Z,96.90
2018-05-08T06:45:12.294Z,96.80
2018-05-08T06:47:38.503Z,96.20
2018-05-08T06:50:04.682Z,96.20
2018-05-08T06:52:30.867Z,95.70
2018-05-08T06:54:57.138Z,96.00
2018-05-08T06:57:23.262Z,95.60
2018-05-08T06:59:49.451Z,95.60
2018-05-08T07:02:15.654Z,95.50
2018-05-08T07:04:41.886Z,95.40
2018-05-08T07:07:08.103Z,95.10
2018-05-08T07:09:34.299Z,94.90
2018-05-08T07:12:00.539Z,94.90
2018-05-08T07:14:26.744Z,94.90
2018-05-08T07:16:52.955Z,94.90
2018-05-08T07:19:19.156Z,94.90
2018-05-08T07:21:45.366Z,94.80
2018-05-08T07:24:12.690Z,93.70
2018-05-08T07:26:38.889Z,94.20
2018-05-08T07:29:05.144Z,94.10
2018-05-08T07:31:31.327Z,94.00
2018-05-08T07:33:57.533Z,93.90
2018-05-08T07:36:23.722Z,93.80
2018-05-08T07:38:55.894Z,92.70
2018-05-08T07:41:22.630Z,92.90
2018-05-08T07:43:48.824Z,92.90
2018-05-08T07:46:15.006Z,92.90
2018-05-08T07:48:41.195Z,92.90
2018-05-08T07:51:08.469Z,92.10
2018-05-08T07:53:35.754Z,91.90
2018-05-08T07:56:02.012Z,92.10
2018-05-08T07:58:28.243Z,92.10
2018-05-08T08:00:54.478Z,92.10
2018-05-08T08:03:20.666Z,92.10
2018-05-08T08:05:46.849Z,91.30
2018-05-08T08:08:13.055Z,91.40
2018-05-08T08:10:39.271Z,91.40
2018-05-08T08:13:05.459Z,91.50
2018-05-08T08:15:32.761Z,90.70
2018-05-08T08:17:58.947Z,90.90
2018-05-08T08:20:25.134Z,90.90
2018-05-08T08:22:51.298Z,91.00
2018-05-08T08:25:17.509Z,91.10
2018-05-08T08:27:43.702Z,91.10
2018-05-08T08:30:09.931Z,91.10
2018-05-08T08:32:36.128Z,90.50
2018-05-08T08:35:02.418Z,90.20
2018-05-08T08:37:28.598Z,89.70
2018-05-08T08:39:54.815Z,90.00
2018-05-08T08:42:21.106Z,89.50
2018-05-08T08:44:47.293Z,89.60
2018-05-08T08:47:13.483Z,89.60
2018-05-08T08:49:39.730Z,89.50
2018-05-08T08:52:05.946Z,89.30
2018-05-08T08:54:33.236Z,87.10
2018-05-08T08:56:59.398Z,87.50
2018-05-08T08:59:25.580Z,87.60
2018-05-08T09:01:51.788Z,87.80
2018-05-08T09:04:17.966Z,87.90
2018-05-08T09:06:44.329Z,87.90
2018-05-08T09:09:11.643Z,85.20
2018-05-08T09:11:37.823Z,86.50
2018-05-08T09:14:05.156Z,85.60
2018-05-08T09:16:31.341Z,85.90
2018-05-08T09:18:58.259Z,86.00
2018-05-08T09:21:24.471Z,85.90
2018-05-08T09:23:50.667Z,85.80
2018-05-08T09:26:16.858Z,85.60
2018-05-08T09:28:43.038Z,85.50
2018-05-08T09:31:09.252Z,85.40
2018-05-08T09:33:35.419Z,84.90
2018-05-08T09:36:01.587Z,84.90
2018-05-08T09:38:27.877Z,84.90
2018-05-08T09:40:54.074Z,84.80
2018-05-08T09:43:20.221Z,84.60
2018-05-08T09:45:47.579Z,82.00
2018-05-08T09:48:13.756Z,82.40
2018-05-08T09:50:39.971Z,82.70
2018-05-08T09:53:06.898Z,82.50
2018-05-08T09:55:33.073Z,82.40
2018-05-08T09:57:59.971Z,81.80
2018-05-08T10:00:26.189Z,81.50
2018-05-08T10:02:52.481Z,81.20
2018-05-08T10:05:18.675Z,81.10
2018-05-08T10:07:44.850Z,80.90
2018-05-08T10:10:11.078Z,80.70
2018-05-08T10:12:37.269Z,79.20
2018-05-08T10:15:03.447Z,79.30
2018-05-08T10:17:29.664Z,79.50
2018-05-08T10:19:55.881Z,79.50
2018-05-08T10:22:22.066Z,79.20
2018-05-08T10:24:48.246Z,79.00
2018-05-08T10:27:14.445Z,78.60
2018-05-08T10:29:40.631Z,78.00
2018-05-08T10:32:06.840Z,77.00
2018-05-08T10:34:33.055Z,76.70
2018-05-08T10:36:59.241Z,76.40
2018-05-08T10:39:25.526Z,76.20
2018-05-08T10:41:51.732Z,75.90
2018-05-08T10:44:17.973Z,75.50
2018-05-08T10:46:44.931Z,75.30
2018-05-08T10:49:11.166Z,73.70
2018-05-08T10:51:37.604Z,73.60
2018-05-08T10:54:03.787Z,73.60
2018-05-08T10:56:30.789Z,73.50
2018-05-08T10:58:57.875Z,73.90
2018-05-08T11:01:24.047Z,73.60
2018-05-08T11:03:50.298Z,73.40
2018-05-08T11:06:17.600Z,72.10
2018-05-08T11:08:43.878Z,72.20
2018-05-08T11:11:10.189Z,72.10
2018-05-08T11:13:36.415Z,70.70
2018-05-08T11:16:02.674Z,71.10
2018-05-08T11:18:28.858Z,71.80
2018-05-08T11:20:55.053Z,70.90
2018-05-08T11:23:21.254Z,70.20
2018-05-08T11:25:47.541Z,70.70
2018-05-08T11:28:13.721Z,70.90
2018-05-08T11:30:39.901Z,71.00
2018-05-08T11:33:06.852Z,71.10
2018-05-08T11:35:33.874Z,70.90
2018-05-08T11:38:00.052Z,69.90
2018-05-08T11:40:38.864Z,69.80
2018-05-08T11:43:05.044Z,68.30
2018-05-08T11:45:31.263Z,68.20
2018-05-08T11:47:57.477Z,67.40
2018-05-08T11:50:23.724Z,66.20
2018-05-08T11:52:49.896Z,63.90
2018-05-08T11:55:16.176Z,62.60
2018-05-08T11:57:42.355Z,60.00
2018-05-08T12:00:08.546Z,59.60
2018-05-08T12:02:34.844Z,57.10
2018-05-08T12:05:01.678Z,56.50
2018-05-08T12:07:27.984Z,56.60
2018-05-08T12:09:54.929Z,56.60
2018-05-08T12:12:22.233Z,56.50
2018-05-08T12:14:48.491Z,56.70
2018-05-08T12:17:14.734Z,56.80
2018-05-08T12:19:40.931Z,57.20
2018-05-08T12:22:07.407Z,57.50
2018-05-08T12:24:33.637Z,58.30
2018-05-08T12:26:59.916Z,59.20
2018-05-08T12:29:26.155Z,60.00
2018-05-08T12:31:52.363Z,61.60
2018-05-08T12:34:18.551Z,61.60
2018-05-08T12:36:44.730Z,61.80
2018-05-08T12:39:11.682Z,61.40
2018-05-08T12:41:38.618Z,61.00
2018-05-08T12:44:04.835Z,60.60
2018-05-08T12:46:31.140Z,58.80
2018-05-08T12:48:57.363Z,59.40
2018-05-08T12:51:24.360Z,58.90
2018-05-08T12:53:50.626Z,58.60
2018-05-08T12:56:16.938Z,58.50
2018-05-08T12:58:43.138Z,58.20
2018-05-08T13:01:09.342Z,54.60
2018-05-08T13:03:35.627Z,54.60
2018-05-08T13:06:01.871Z,54.60
2018-05-08T13:08:28.145Z,54.50
2018-05-08T13:10:54.412Z,54.20
2018-05-08T13:13:21.384Z,53.60
2018-05-08T13:15:47.703Z,53.30
2018-05-08T13:18:13.986Z,52.90
2018-05-08T13:20:40.151Z,52.70
2018-05-08T13:23:06.354Z,52.70
2018-05-08T13:25:33.197Z,52.70
2018-05-08T13:27:59.448Z,52.40
2018-05-08T13:30:25.644Z,52.80
2018-05-08T13:32:51.874Z,53.60
2018-05-08T13:35:19.105Z,54.80
2018-05-08T13:37:46.193Z,56.60
2018-05-08T13:40:14.031Z,57.50
2018-05-08T13:42:41.746Z,58.80
2018-05-08T13:45:08.267Z,60.20
2018-05-08T13:47:35.065Z,61.10
2018-05-08T13:50:01.720Z,62.50
2018-05-08T13:52:28.213Z,62.20
2018-05-08T13:54:54.496Z,62.00
2018-05-08T13:57:20.775Z,62.00
2018-05-08T13:59:46.970Z,62.00
2018-05-08T14:02:13.178Z,62.00
2018-05-08T14:04:39.627Z,62.10
2018-05-08T14:07:06.123Z,62.00
2018-05-08T14:09:32.776Z,61.90
2018-05-08T14:11:59.162Z,60.90
2018-05-08T14:17:06.947Z,59.20
2018-05-08T14:19:32.960Z,58.90
2018-05-08T14:21:59.235Z,60.40
2018-05-08T14:24:26.156Z,59.60
2018-05-08T14:26:52.340Z,59.60
2018-05-08T14:29:18.781Z,58.90
2018-05-08T14:31:44.966Z,58.70
2018-05-08T14:34:11.147Z,58.70
2018-05-08T14:36:37.370Z,59.00
2018-05-08T14:39:04.459Z,59.30
2018-05-08T14:41:31.454Z,59.60
2018-05-08T14:43:57.649Z,59.60
2018-05-08T14:46:23.848Z,60.60
2018-05-08T14:48:50.019Z,61.00
2018-05-08T14:51:16.207Z,63.70
2018-05-08T14:53:42.534Z,64.30
2018-05-08T14:56:09.459Z,65.80
2018-05-08T14:58:35.785Z,66.10
2018-05-08T15:01:01.998Z,68.50
2018-05-08T15:03:28.178Z,69.40
2018-05-08T15:05:54.362Z,70.40
2018-05-08T15:10:51.457Z,72.70
2018-05-08T15:13:18.024Z,72.80
2018-05-08T15:15:45.384Z,72.90
2018-05-08T15:18:11.887Z,73.20
2018-05-08T15:20:38.851Z,73.80
2018-05-08T15:23:05.026Z,74.70
2018-05-08T15:25:31.238Z,74.20
2018-05-08T15:27:58.225Z,74.30
2018-05-08T15:30:24.386Z,74.70
2018-05-08T15:32:50.549Z,74.50
2018-05-08T15:35:16.739Z,74.60
2018-05-08T15:37:44.007Z,72.50
2018-05-08T15:40:10.163Z,72.90
2018-05-08T15:42:36.347Z,73.10
2018-05-08T15:45:02.576Z,73.10
2018-05-08T15:47:28.776Z,73.40
2018-05-08T15:49:54.971Z,73.70
2018-05-08T15:52:21.134Z,73.80
2018-05-08T15:54:48.411Z,73.30
2018-05-08T15:57:15.386Z,74.50
2018-05-08T15:59:41.608Z,74.50
2018-05-08T16:02:08.938Z,74.20
2018-05-08T16:04:35.106Z,74.80
2018-05-08T16:07:02.415Z,73.30
2018-05-08T16:09:28.603Z,73.70
2018-05-08T16:11:54.802Z,74.00
2018-05-08T16:14:20.966Z,74.60
2018-05-08T16:16:47.146Z,74.70
2018-05-08T16:19:13.330Z,73.30
2018-05-08T16:21:39.526Z,73.40
2018-05-08T16:24:06.445Z,73.70
2018-05-08T16:26:32.647Z,74.00
2018-05-08T16:28:58.815Z,73.90
2018-05-08T16:31:24.993Z,75.70
2018-05-08T16:33:52.280Z,74.10
2018-05-08T16:36:18.447Z,75.00
2018-05-08T16:38:44.607Z,77.30
2018-05-08T16:41:10.826Z,77.80
2018-05-08T16:43:37.005Z,77.00
2018-05-08T16:46:03.188Z,75.70
2018-05-08T16:48:29.416Z,76.20
2018-05-08T16:50:56.350Z,77.60
2018-05-08T16:53:22.556Z,77.00
2018-05-08T16:55:48.802Z,77.90
2018-05-08T16:58:15.026Z,77.10
2018-05-08T17:00:41.221Z,77.40
2018-05-08T17:03:08.611Z,76.50
2018-05-08T17:05:34.895Z,77.80
2018-05-08T17:08:01.084Z,77.30
2018-05-08T17:10:28.132Z,77.30
2018-05-08T17:12:54.267Z,77.40
2018-05-08T17:15:20.571Z,78.80
2018-05-08T17:17:46.746Z,77.70
2018-05-08T17:20:12.924Z,77.10
2018-05-08T17:22:39.107Z,77.30
2018-05-08T17:25:05.371Z,77.30
2018-05-08T17:27:31.583Z,77.30
2018-05-08T17:29:57.942Z,79.00
2018-05-08T17:32:24.115Z,78.70
2018-05-08T17:34:50.394Z,79.40
2018-05-08T17:37:16.588Z,79.10
2018-05-08T17:39:43.526Z,79.80
2018-05-08T17:42:09.683Z,80.60
2018-05-08T17:44:37.100Z,79.00
2018-05-08T17:47:03.280Z,80.00
2018-05-08T17:49:29.454Z,80.20
2018-05-08T17:51:55.640Z,80.30
2018-05-08T17:54:21.818Z,80.30
2018-05-08T17:56:48.025Z,80.50
2018-05-08T17:59:14.255Z,80.80
2018-05-08T18:01:40.437Z,81.30
2018-05-08T18:04:06.642Z,81.30
2018-05-08T18:06:32.815Z,81.60
2018-05-08T18:08:59.021Z,81.70
2018-05-08T18:11:25.336Z,81.90
2018-05-08T18:13:51.847Z,81.80
2018-05-08T18:16:19.174Z,81.30
2018-05-08T18:18:45.328Z,82.40
2018-05-08T18:21:11.577Z,82.30
2018-05-08T18:23:37.818Z,82.50
2018-05-08T18:26:04.018Z,83.10
2018-05-08T18:28:30.198Z,83.30
2018-05-08T18:30:56.383Z,83.80
2018-05-08T18:33:23.699Z,83.30
2018-05-08T18:35:49.910Z,83.90
2018-05-08T18:38:16.097Z,85.00
2018-05-08T18:40:42.374Z,85.20
2018-05-08T18:43:08.544Z,85.20
2018-05-08T18:45:34.781Z,85.40
2018-05-08T18:48:00.966Z,85.20
2018-05-08T18:50:27.257Z,85.90
2018-05-08T18:52:54.059Z,86.20
2018-05-08T18:55:20.247Z,86.40
2018-05-08T18:57:46.542Z,86.70
2018-05-08T19:00:19.510Z,87.50
2018-05-08T19:02:45.754Z,87.70
2018-05-08T19:05:11.935Z,88.80
2018-05-08T19:07:38.122Z,90.20
2018-05-08T19:10:04.303Z,90.20
2018-05-08T19:12:30.519Z,90.00
2018-05-08T19:15:02.718Z,90.10
2018-05-08T19:17:28.903Z,90.20
2018-05-08T19:20:01.074Z,90.30
2018-05-08T19:22:28.520Z,90.10
2018-05-08T19:24:54.976Z,90.60
2018-05-08T19:27:21.168Z,91.00
2018-05-08T19:29:53.539Z,91.10
2018-05-08T19:32:19.771Z,91.20
2018-05-08T19:37:26.152Z,91.80
2018-05-08T19:39:52.347Z,91.90
2018-05-08T19:42:18.573Z,92.40
2018-05-08T19:44:44.777Z,92.20
2018-05-08T19:47:10.954Z,92.50
2018-05-08T19:49:37.418Z,93.10
2018-05-08T19:52:03.647Z,93.00
2018-05-08T19:54:29.819Z,92.50
2018-05-08T19:56:56.038Z,92.60
2018-05-08T19:59:22.243Z,92.60
2018-05-08T20:01:48.469Z,92.60
2018-05-08T20:04:15.794Z,92.00
2018-05-08T20:06:41.984Z,92.50
2018-05-08T20:09:08.204Z,92.50
2018-05-08T20:11:34.398Z,92.60
2018-05-08T20:14:00.701Z,92.60
2018-05-08T20:16:27.228Z,92.70
2018-05-08T20:18:54.200Z,92.90
2018-05-08T20:21:20.526Z,93.00
2018-05-08T20:23:46.760Z,93.00
2018-05-08T20:26:13.012Z,92.70
2018-05-08T20:28:39.300Z,92.90
2018-05-08T20:33:35.437Z,92.60
2018-05-08T20:36:01.713Z,92.70
2018-05-08T20:38:27.881Z,92.80
2018-05-08T20:40:54.267Z,93.00
2018-05-08T20:43:21.760Z,92.40
2018-05-08T20:45:48.150Z,92.90
2018-05-08T20:48:14.710Z,93.20
2018-05-08T20:50:41.044Z,93.10
2018-05-08T20:53:07.411Z,93.10
2018-05-08T20:55:33.710Z,93.00
2018-05-08T20:58:00.063Z,93.40
2018-05-08T21:00:26.263Z,93.30
2018-05-08T21:02:52.586Z,93.50
2018-05-08T21:05:19.024Z,93.40
2018-05-08T21:07:45.194Z,93.50
2018-05-08T21:10:11.372Z,93.40
2018-05-08T21:12:37.667Z,93.50
2018-05-08T21:15:03.863Z,93.40
2018-05-08T21:17:30.215Z,93.50
2018-05-08T21:19:57.614Z,93.40
2018-05-08T21:22:24.872Z,93.20
2018-05-08T21:24:51.070Z,93.70
2018-05-08T21:27:17.406Z,93.70
2018-05-08T21:29:49.835Z,93.80
2018-05-08T21:32:16.025Z,93.80
2018-05-08T21:34:43.381Z,93.20
2018-05-08T21:37:10.703Z,93.20
2018-05-08T21:39:36.934Z,93.70
2018-05-08T21:42:03.178Z,93.70
2018-05-08T21:44:29.482Z,93.70
2018-05-08T21:46:56.814Z,93.30
2018-05-08T21:49:23.030Z,93.40
2018-05-08T21:51:49.271Z,93.80
2018-05-08T21:54:15.604Z,93.80
2018-05-08T21:56:41.824Z,93.90
2018-05-08T22:01:36.087Z,93.50
2018-05-08T22:04:02.968Z,93.70
2018-05-08T22:06:29.468Z,94.00
2018-05-08T22:08:56.119Z,94.00
2018-05-08T22:11:22.363Z,93.90
2018-05-08T22:13:48.635Z,94.00
2018-05-08T22:16:14.799Z,94.10
2018-05-08T22:18:40.998Z,94.10
2018-05-08T22:21:07.302Z,94.20
2018-05-08T22:23:34.678Z,93.70
2018-05-08T22:28:28.759Z,94.20
2018-05-08T22:30:54.942Z,94.40
2018-05-08T22:33:21.102Z,94.60
2018-05-08T22:35:47.294Z,94.60
2018-05-08T22:38:13.475Z,94.60
2018-05-08T22:40:39.628Z,94.60
2018-05-08T22:43:05.831Z,94.70
2018-05-08T22:45:33.109Z,94.20
2018-05-08T22:48:00.477Z,94.20
2018-05-08T22:50:26.590Z,94.70
2018-05-08T22:52:53.874Z,94.50
2018-05-08T22:55:21.166Z,94.40
2018-05-08T22:57:47.320Z,94.80
2018-05-08T23:00:13.794Z,94.90
2018-05-08T23:02:39.958Z,95.10
2018-05-08T23:05:07.249Z,94.80
2018-05-08T23:07:33.425Z,95.30
2018-05-08T23:09:59.606Z,95.30
2018-05-08T23:12:25.794Z,95.40
2018-05-08T23:14:52.951Z,95.50
2018-05-08T23:17:19.133Z,95.50
2018-05-08T23:19:45.334Z,95.60
2018-05-08T23:22:11.494Z,95.70
2018-05-08T23:24:37.686Z,95.70
2018-05-08T23:29:31.777Z,95.20
2018-05-08T23:31:57.959Z,95.90
2018-05-08T23:34:24.142Z,95.90
2018-05-08T23:36:50.343Z,96.00
2018-05-08T23:39:16.513Z,96.00
2018-05-08T23:41:42.685Z,96.00
2018-05-08T23:44:08.878Z,96.00
2018-05-08T23:46:35.043Z,96.00
2018-05-08T23:49:01.214Z,95.90
2018-05-08T23:51:27.381Z,96.10
2018-05-08T23:53:53.606Z,96.10
2018-05-08T23:56:19.831Z,96.20
2018-05-08T23:58:46.003Z,96.30
